KLFT

Lafayette Regional / Paul Fournet Field Airport

Lafayette, Louisiana, USA
METAR KLFT 140433Z AUTO 35012G18KT 10SM OVC011 04/02 A3038 RMK AO2 T00390022
Observed Flight Rules
Nov-14 @ 04:33 UTC (20 minutes ago) Marginal Visual Flight Rules
Wind Visibility Clouds
350° at 12 knots
 Gusting to 18 knots
10 miles
  • Overcast at 1,100' AGL
Temperatures Readings
Current 4°C / 39°F
Dewpoint 2°C / 36°F
Humidity 87%
Altimeter 30.38" Hg
Pressure 1029 hPa
Elevation 11
METAR KLFT 140433Z AUTO 35012G18KT 10SM OVC011 04/02 A3038 RMK AO2 T00390022
Observed Flight Rules
Nov-14 @ 04:33 UTC
(20 minutes ago)
MVFR
Wind Visibility
350° at 12 knots
 Gusting to 18 knots
10 miles
Clouds
  • Overcast at 1,100' AGL
Temperature Dewpoint
4°C / 39°F 2°C / 36°F
Humidity Altimeter Pressure
87% 30.38" Hg 1029 hPa